Report METAR

 

KSJC - San Jose, California, USA
Distance from station: NE 14km
Dati ricevuti: 15/08/2022 13:53
Sereno
Sereno
 Vento da calmo
Vento: Calma
Temperatura: 16°C
P.to Rugiada: 13°C
Umidità: 83%
Barometro: 1011.9 hPa
Nuvole: Sereno
Visibility: 16 km
2022/08/15 11:53 KSJC 151153Z AUTO 00000KT 10SM CLR 16/13 A2988 RMK AO2 SLP117 T01610128 10178 20156 58008 $
KNUQ - Moffett Nas/Mtn, California, USA
Distance from station: N 14km
Dati ricevuti: 15/08/2022 13:35

 Vento da calmo
Vento: Calma
Temperatura: 16°C
P.to Rugiada: 14°C
Umidità: 88%
Barometro: 1012.2 hPa
Visibility: 16 km
2022/08/15 11:35 KNUQ 151135Z AUTO 00000KT 10SM 16/14 A2989 RMK AO2
 
KPAO - Palo Alto, California, USA
Distance from station: NNO 23km
Dati ricevuti: 15/08/2022 05:47
DATI Obsoleti
Sereno
Sereno
 Vento da NNO
Vento: NNO 15 km/h
Temperatura: 18°C
P.to Rugiada: 14°C
Umidità: 78%
Barometro: 1012.9 hPa
Nuvole: Sereno
Visibility: 16 km
2022/08/15 03:47 KPAO 150347Z 34008KT 10SM SKC 18/14 A2991 RMK LAST
KRHV - San Jose/Reid, California, USA
Distance from station: ENE 19km
Dati ricevuti: 15/08/2022 06:47
DATI Obsoleti
Sereno
Sereno
 Vento da ONO
Vento: ONO 9 km/h
Temperatura: 20°C
P.to Rugiada: 13°C
Umidità: 64%
Barometro: 1013.5 hPa
Nuvole: Sereno
Visibility: 16 km
2022/08/15 04:47 KRHV 150447Z 29005KT 10SM SKC 20/13 A2993 RMK LAST
 
KOAK - Oakland, California, USA
Distance from station: NNO 50km
Dati ricevuti: 15/08/2022 13:53
Few Clouds
Few Clouds
 Vento da OSO
Vento: OSO 7 km/h
Temperatura: 16°C
P.to Rugiada: 13°C
Umidità: 83%
Barometro: 1012.2 hPa
Nuvole: Few Clouds
Visibility: 16 km
Cloud details: Few Clouds 244 m
Few Clouds 335 m
2022/08/15 11:53 KOAK 151153Z 24004KT 10SM FEW008 FEW011 16/13 A2989 RMK AO2 SLP120 T01560128 10156 20128 58007
KSQL - San Carlos Airpo, California, USA
Distance from station: NO 34km
Dati ricevuti: 15/08/2022 13:35
Sereno
Sereno
 Vento da calmo
Vento: Calma
Temperatura: 15°C
P.to Rugiada: 12°C
Umidità: 82%
Barometro: 1012.2 hPa
Nuvole: Sereno
Visibility: 16 km
2022/08/15 11:35 KSQL 151135Z AUTO 00000KT 10SM CLR 15/12 A2989 RMK AO2
 
KSFO - San Francisco, California, USA
Distance from station: NO 49km
Dati ricevuti: 15/08/2022 12:56
Few Clouds
Few Clouds
 Vento da ONO
Vento: ONO 13 km/h
Temperatura: 14°C
P.to Rugiada: 11°C
Umidità: 82%
Barometro: 1012.2 hPa
Nuvole: Few Clouds
Visibility: 16 km
Cloud details: Few Clouds 244 m
2022/08/15 10:56 KSFO 151056Z 30007KT 10SM FEW008 14/11 A2989 RMK AO2 SLP121 T01440111
KE16 - San Martin, California, USA
Distance from station: ESE 43km
Dati ricevuti: 15/08/2022 13:35
Parz. nuvoloso
Parz. nuvoloso
 Vento da calmo
Vento: Calma
Temperatura: 13°C
P.to Rugiada: 11°C
Umidità: 88%
Barometro: 1012.9 hPa
Nuvole: Parz. nuvoloso
Visibility: 16 km
Cloud details: Parz. nuvoloso 518 m
2022/08/15 11:35 KE16 151135Z AUTO 00000KT 10SM SCT017 13/11 A2991 RMK AO2
 
KWVI - Watsonville, California, USA
Distance from station: SSE 44km
Dati ricevuti: 15/08/2022 13:53
Nebbia, Coperto
Nebbia, Coperto
 Vento da calmo
Vento: Calma
Temperatura: 12°C
P.to Rugiada: 12°C
Umidità: 100%
Barometro: 1012.9 hPa
Summary: Nebbia
Nuvole: Coperto
Visibility: 0.8 km
Cloud details: Coperto 61 m
2022/08/15 11:53 KWVI 151153Z AUTO 00000KT 1/2SM FG VV002 12/12 A2991 RMK AO2 SLP127 T01220122 10133 20117 56005
KHAF - Half Moon Bay, California, USA
Distance from station: ONO 50km
Dati ricevuti: 15/08/2022 13:35
Mist, Coperto
Mist, Coperto
 Vento da calmo
Vento: Calma
Temperatura: 12°C
P.to Rugiada: 12°C
Umidità: 100%
Barometro: 1012.9 hPa
Summary: Mist
Nuvole: Coperto
Visibility: 10 km
Cloud details: Coperto 274 m
2022/08/15 11:35 KHAF 151135Z AUTO 00000KT 6SM BR OVC009 12/12 A2991 RMK AO2
 
KHWD - Hayward, California, USA
Distance from station: N 44km
Dati ricevuti: 15/08/2022 13:54
Sereno
Sereno
 Vento da calmo
Vento: Calma
Temperatura: 16°C
P.to Rugiada: 12°C
Umidità: 77%
Barometro: 1011.9 hPa
Nuvole: Sereno
Visibility: 16 km
2022/08/15 11:54 KHWD 151154Z 00000KT 10SM CLR 16/12 A2988 RMK AO2 SLP125 T01560122 10172 20150 58007
KLVK - Livermore, California, USA
Distance from station: NNE 51km
Dati ricevuti: 15/08/2022 13:53
Sereno
Sereno
 Vento da calmo
Vento: Calma
Temperatura: 16°C
P.to Rugiada: 12°C
Umidità: 77%
Barometro: 1011.5 hPa
Nuvole: Sereno
Visibility: 16 km
2022/08/15 11:53 KLVK 151153Z AUTO 00000KT 10SM CLR 16/12 A2987 RMK AO2 SLP111 T01610122 10200 20156 56005 $